Jasper S — V2CQ4 — position and weather

sailwx.info

Track history (hours):
 
Tides and Currents Weather Stations Pressure Air Temp Water Temp Dewpoint Dewpoint Depression Visibility Wind Speed Wind Dir Waves Ship Positions

Jasper S

Last reported at 2014-Jul-25 00:21 UTC. Time now 2014-Jul-25 06:54 UTC.
Position N 35°43' W 000°38'.

Length 148 m; draft 8.5 m.

Type: Ship (hazmat cat A). MMSI: 305079000.

Date/timePositionNaut miles runAvg speedWind from/ knotsBaromVisibWave heightAir tempDewpointWater temp
2014-Jul-25 00:21N 35°43' W 000°38'0 0.0
2014-Jul-24 23:13N 35°43' W 000°38'0 0.0
2014-Jul-24 22:27N 35°43' W 000°38'0 0.0
2014-Jul-24 18:10N 35°43' W 000°38'0 0.0
2014-Jul-24 17:30N 35°43' W 000°38'0 0.0
2014-Jul-24 15:12N 35°43' W 000°38'0 0.0
2014-Jul-23 18:18N 35°43' W 000°38'0 0.0
2014-Jul-23 17:24N 35°43' W 000°38'0 0.0
2014-Jul-23 15:28N 35°43' W 000°38'0 0.0
2014-Jul-23 14:33N 35°43' W 000°38'0 0.0
2014-Jul-23 13:03N 35°43' W 000°38'0 0.0
2014-Jul-23 12:33N 35°43' W 000°38'0 0.0
2014-Jul-23 11:30N 35°43' W 000°38'0 0.0
2014-Jul-23 10:18N 35°43' W 000°38'0 0.0
2014-Jul-23 08:25N 35°43' W 000°38'0 0.0
2014-Jul-23 07:28N 35°43' W 000°38'0 0.0
2014-Jul-23 05:28N 35°43' W 000°38'0 0.0
2014-Jul-23 04:28N 35°43' W 000°38'0 0.0
2014-Jul-23 00:28N 35°43' W 000°38'0 0.0
2014-Jul-22 21:31N 35°43' W 000°38'0 0.0
2014-Jul-22 16:30N 35°43' W 000°38'0 0.0
2014-Jul-22 15:18N 35°43' W 000°38'0 0.0
2014-Jul-22 14:30N 35°43' W 000°38'1 1.1
2014-Jul-22 13:33N 35°44' W 000°37'2 2.0
2014-Jul-22 12:27N 35°46' W 000°37'0 0.0
2014-Jul-22 10:21N 35°46' W 000°37'0 0.0
2014-Jul-22 07:29N 35°46' W 000°37'0 0.0
2014-Jul-22 06:11N 35°46' W 000°37'0 0.0
2014-Jul-22 05:22N 35°46' W 000°37'0 0.0
2014-Jul-22 04:29N 35°46' W 000°37'0 0.0
2014-Jul-22 03:23N 35°46' W 000°37'0 0.0
2014-Jul-22 02:23N 35°46' W 000°37'0 0.1
2014-Jul-22 01:29N 35°46' W 000°37'0 0.0
2014-Jul-22 00:23N 35°46' W 000°37'0 0.0
2014-Jul-21 23:32N 35°46' W 000°37'0 0.1
2014-Jul-21 22:21N 35°46' W 000°37'0 0.1
2014-Jul-21 21:29N 35°46' W 000°37'0 0.0
2014-Jul-21 14:14N 35°46' W 000°37'0 0.0
2014-Jul-21 13:31N 35°46' W 000°37'  
2014-Jul-19 08:31N 35°46' W 000°37'101 7.0
2014-Jul-18 18:08N 37°20' E 000°10'1014.1
2014-Jul-18 17:26N 37°29' E 000°14'1314.3
2014-Jul-18 16:33N 37°41' E 000°20'1414.3
2014-Jul-18 15:33N 37°55' E 000°27'1414.2
2014-Jul-18 14:34N 38°08' E 000°33'1514.1
2014-Jul-18 13:28N 38°22' E 000°40'1314.1
2014-Jul-18 12:33N 38°34' E 000°47'1814.0
2014-Jul-18 11:17N 38°50' E 000°55'1014.3
2014-Jul-18 10:33N 39°00' E 001°00'1514.6
2014-Jul-18 09:33N 39°14' E 001°07'1414.5
2014-Jul-18 08:33N 39°27' E 001°14'1414.4
2014-Jul-18 07:33N 39°41' E 001°21'1414.4
2014-Jul-18 06:33N 39°54' E 001°28'1414.5
2014-Jul-18 05:33N 40°07' E 001°34'1514.7
2014-Jul-18 04:33N 40°21' E 001°42'1514.8
2014-Jul-18 03:33N 40°35' E 001°49'1515.0
2014-Jul-18 02:33N 40°49' E 001°56'1515.1
2014-Jul-18 01:33N 41°03' E 002°03'1514.7
2014-Jul-18 00:34N 41°16' E 002°11'2 2.0
2014-Jul-17 23:18N 41°18' E 002°09'0 0.0
2014-Jul-17 22:12N 41°18' E 002°09'0 0.0
2014-Jul-17 21:30N 41°18' E 002°09'0 0.0
2014-Jul-17 20:30N 41°18' E 002°09'0 0.0
2014-Jul-17 19:33N 41°18' E 002°09'0 0.0
2014-Jul-17 18:33N 41°18' E 002°09'4 3.6
2014-Jul-17 17:30N 41°15' E 002°09'8 8.7
2014-Jul-17 16:33N 41°09' E 002°01'1613.9
2014-Jul-17 15:27N 40°58' E 001°46'1313.9
2014-Jul-17 14:32N 40°49' E 001°35'1414.0
2014-Jul-17 13:33N 40°39' E 001°22'1414.0
2014-Jul-17 12:33N 40°29' E 001°09'1414.1
2014-Jul-17 11:33N 40°19' E 000°56'1414.1
2014-Jul-17 10:33N 40°09' E 000°43'1414.0
2014-Jul-17 09:33N 39°59' E 000°30'1614.4
2014-Jul-17 08:26N 39°48' E 000°15'2714.1
2014-Jul-17 06:32N 39°30' W 000°10'8 7.9
2014-Jul-17 05:33N 39°26' W 000°20'0 0.0
2014-Jul-17 04:33N 39°26' W 000°20'0 0.0
2014-Jul-17 03:33N 39°26' W 000°20'0 0.0
2014-Jul-17 02:30N 39°26' W 000°20'0 0.0
2014-Jul-17 01:33N 39°26' W 000°20'0 0.0
2014-Jul-17 00:24N 39°26' W 000°20'0 0.0
2014-Jul-16 23:33N 39°26' W 000°20'0 0.0
2014-Jul-16 22:27N 39°26' W 000°20'0 0.0
2014-Jul-16 21:30N 39°26' W 000°20'0 0.0
2014-Jul-16 20:33N 39°26' W 000°20'0 0.0
2014-Jul-16 19:33N 39°26' W 000°20'0 0.0
2014-Jul-16 18:33N 39°26' W 000°20'0 0.0
2014-Jul-16 17:30N 39°26' W 000°20'0 0.0
2014-Jul-16 16:33N 39°26' W 000°20'1 0.6
2014-Jul-16 15:29N 39°26' W 000°19'0 0.0
2014-Jul-16 14:32N 39°26' W 000°19'0 0.0
2014-Jul-16 13:32N 39°26' W 000°19'0 0.0
2014-Jul-16 12:29N 39°26' W 000°19'0 0.0
2014-Jul-16 11:29N 39°26' W 000°19'0 0.0
2014-Jul-16 10:32N 39°26' W 000°19'0 0.0
2014-Jul-16 09:32N 39°26' W 000°19'0 0.0
2014-Jul-16 08:32N 39°26' W 000°19'0 0.0
2014-Jul-16 07:32N 39°26' W 000°19'0 0.0
2014-Jul-16 06:29N 39°26' W 000°19'0 0.0
2014-Jul-16 05:32N 39°26' W 000°19'0 0.0
2014-Jul-16 04:32N 39°26' W 000°19'0 0.0
2014-Jul-16 03:32N 39°26' W 000°19'0 0.0
2014-Jul-16 02:32N 39°26' W 000°19'0 0.0
2014-Jul-16 01:32N 39°26' W 000°19'0 0.0
2014-Jul-16 00:32N 39°26' W 000°19'0 0.0
2014-Jul-15 23:32N 39°26' W 000°19'0 0.0
2014-Jul-15 22:32N 39°26' W 000°19'0 0.0
2014-Jul-15 21:32N 39°26' W 000°19'0 0.0
2014-Jul-15 20:29N 39°26' W 000°19'0 0.0
2014-Jul-15 19:32N 39°26' W 000°19'0 0.0
2014-Jul-15 18:32N 39°26' W 000°19'0 0.0
2014-Jul-15 17:32N 39°26' W 000°19'0 0.0
2014-Jul-15 16:32N 39°26' W 000°19'0 0.0
2014-Jul-15 15:32N 39°26' W 000°19'0 0.0
2014-Jul-15 14:32N 39°26' W 000°19'0 0.0
2014-Jul-15 13:29N 39°26' W 000°19'0 0.0
2014-Jul-15 12:29N 39°26' W 000°19'0 0.0
2014-Jul-15 11:32N 39°26' W 000°19'0 0.0
2014-Jul-15 10:32N 39°26' W 000°19'0 0.0
2014-Jul-15 09:32N 39°26' W 000°19'0 0.0
2014-Jul-15 08:32N 39°26' W 000°19'0 0.0
2014-Jul-15 07:32N 39°26' W 000°19'0 0.0
2014-Jul-15 06:32N 39°26' W 000°19'0 0.0
2014-Jul-15 05:32N 39°26' W 000°19'0 0.0
2014-Jul-15 04:32N 39°26' W 000°19'0 0.0
2014-Jul-15 03:32N 39°26' W 000°19'0 0.0
2014-Jul-15 02:32N 39°26' W 000°19'0 0.0
2014-Jul-15 01:32N 39°26' W 000°19'0 0.0
2014-Jul-15 00:32N 39°26' W 000°19'  
Track history (hours):
 
Tides and Currents Weather Stations Pressure Air Temp Water Temp Dewpoint Dewpoint Depression Visibility Wind Speed Wind Dir Waves Ship Positions

Jasper S

Last reported at 2014-Jul-25 00:21 UTC. Time now 2014-Jul-25 06:54 UTC.
Position N 35°43' W 000°38'.

Length 148 m; draft 8.5 m.

Type: Ship (hazmat cat A). MMSI: 305079000.

Date/timePositionNaut miles runAvg speedWind from/ knotsBaromVisibWave heightAir tempDewpointWater temp
2014-Jul-25 00:21N 35°43' W 000°38'0 0.0
2014-Jul-24 23:13N 35°43' W 000°38'0 0.0
2014-Jul-24 22:27N 35°43' W 000°38'0 0.0
2014-Jul-24 18:10N 35°43' W 000°38'0 0.0
2014-Jul-24 17:30N 35°43' W 000°38'0 0.0
2014-Jul-24 15:12N 35°43' W 000°38'0 0.0
2014-Jul-23 18:18N 35°43' W 000°38'0 0.0
2014-Jul-23 17:24N 35°43' W 000°38'0 0.0
2014-Jul-23 15:28N 35°43' W 000°38'0 0.0
2014-Jul-23 14:33N 35°43' W 000°38'0 0.0
2014-Jul-23 13:03N 35°43' W 000°38'0 0.0
2014-Jul-23 12:33N 35°43' W 000°38'0 0.0
2014-Jul-23 11:30N 35°43' W 000°38'0 0.0
2014-Jul-23 10:18N 35°43' W 000°38'0 0.0
2014-Jul-23 08:25N 35°43' W 000°38'0 0.0
2014-Jul-23 07:28N 35°43' W 000°38'0 0.0
2014-Jul-23 05:28N 35°43' W 000°38'0 0.0
2014-Jul-23 04:28N 35°43' W 000°38'0 0.0
2014-Jul-23 00:28N 35°43' W 000°38'0 0.0
2014-Jul-22 21:31N 35°43' W 000°38'0 0.0
2014-Jul-22 16:30N 35°43' W 000°38'0 0.0
2014-Jul-22 15:18N 35°43' W 000°38'0 0.0
2014-Jul-22 14:30N 35°43' W 000°38'1 1.1
2014-Jul-22 13:33N 35°44' W 000°37'2 2.0
2014-Jul-22 12:27N 35°46' W 000°37'0 0.0
2014-Jul-22 10:21N 35°46' W 000°37'0 0.0
2014-Jul-22 07:29N 35°46' W 000°37'0 0.0
2014-Jul-22 06:11N 35°46' W 000°37'0 0.0
2014-Jul-22 05:22N 35°46' W 000°37'0 0.0
2014-Jul-22 04:29N 35°46' W 000°37'0 0.0
2014-Jul-22 03:23N 35°46' W 000°37'0 0.0
2014-Jul-22 02:23N 35°46' W 000°37'0 0.1
2014-Jul-22 01:29N 35°46' W 000°37'0 0.0
2014-Jul-22 00:23N 35°46' W 000°37'0 0.0
2014-Jul-21 23:32N 35°46' W 000°37'0 0.1
2014-Jul-21 22:21N 35°46' W 000°37'0 0.1
2014-Jul-21 21:29N 35°46' W 000°37'0 0.0
2014-Jul-21 14:14N 35°46' W 000°37'0 0.0
2014-Jul-21 13:31N 35°46' W 000°37'  
2014-Jul-19 08:31N 35°46' W 000°37'101 7.0
2014-Jul-18 18:08N 37°20' E 000°10'1014.1
2014-Jul-18 17:26N 37°29' E 000°14'1314.3
2014-Jul-18 16:33N 37°41' E 000°20'1414.3
2014-Jul-18 15:33N 37°55' E 000°27'1414.2
2014-Jul-18 14:34N 38°08' E 000°33'1514.1
2014-Jul-18 13:28N 38°22' E 000°40'1314.1
2014-Jul-18 12:33N 38°34' E 000°47'1814.0
2014-Jul-18 11:17N 38°50' E 000°55'1014.3
2014-Jul-18 10:33N 39°00' E 001°00'1514.6
2014-Jul-18 09:33N 39°14' E 001°07'1414.5
2014-Jul-18 08:33N 39°27' E 001°14'1414.4
2014-Jul-18 07:33N 39°41' E 001°21'1414.4
2014-Jul-18 06:33N 39°54' E 001°28'1414.5
2014-Jul-18 05:33N 40°07' E 001°34'1514.7
2014-Jul-18 04:33N 40°21' E 001°42'1514.8
2014-Jul-18 03:33N 40°35' E 001°49'1515.0
2014-Jul-18 02:33N 40°49' E 001°56'1515.1
2014-Jul-18 01:33N 41°03' E 002°03'1514.7
2014-Jul-18 00:34N 41°16' E 002°11'2 2.0
2014-Jul-17 23:18N 41°18' E 002°09'0 0.0
2014-Jul-17 22:12N 41°18' E 002°09'0 0.0
2014-Jul-17 21:30N 41°18' E 002°09'0 0.0
2014-Jul-17 20:30N 41°18' E 002°09'0 0.0
2014-Jul-17 19:33N 41°18' E 002°09'0 0.0
2014-Jul-17 18:33N 41°18' E 002°09'4 3.6
2014-Jul-17 17:30N 41°15' E 002°09'8 8.7
2014-Jul-17 16:33N 41°09' E 002°01'1613.9
2014-Jul-17 15:27N 40°58' E 001°46'1313.9
2014-Jul-17 14:32N 40°49' E 001°35'1414.0
2014-Jul-17 13:33N 40°39' E 001°22'1414.0
2014-Jul-17 12:33N 40°29' E 001°09'1414.1
2014-Jul-17 11:33N 40°19' E 000°56'1414.1
2014-Jul-17 10:33N 40°09' E 000°43'1414.0
2014-Jul-17 09:33N 39°59' E 000°30'1614.4
2014-Jul-17 08:26N 39°48' E 000°15'2714.1
2014-Jul-17 06:32N 39°30' W 000°10'8 7.9
2014-Jul-17 05:33N 39°26' W 000°20'0 0.0
2014-Jul-17 04:33N 39°26' W 000°20'0 0.0
2014-Jul-17 03:33N 39°26' W 000°20'0 0.0
2014-Jul-17 02:30N 39°26' W 000°20'0 0.0
2014-Jul-17 01:33N 39°26' W 000°20'0 0.0
2014-Jul-17 00:24N 39°26' W 000°20'0 0.0
2014-Jul-16 23:33N 39°26' W 000°20'0 0.0
2014-Jul-16 22:27N 39°26' W 000°20'0 0.0
2014-Jul-16 21:30N 39°26' W 000°20'0 0.0
2014-Jul-16 20:33N 39°26' W 000°20'0 0.0
2014-Jul-16 19:33N 39°26' W 000°20'0 0.0
2014-Jul-16 18:33N 39°26' W 000°20'0 0.0
2014-Jul-16 17:30N 39°26' W 000°20'0 0.0
2014-Jul-16 16:33N 39°26' W 000°20'1 0.6
2014-Jul-16 15:29N 39°26' W 000°19'0 0.0
2014-Jul-16 14:32N 39°26' W 000°19'0 0.0
2014-Jul-16 13:32N 39°26' W 000°19'0 0.0
2014-Jul-16 12:29N 39°26' W 000°19'0 0.0
2014-Jul-16 11:29N 39°26' W 000°19'0 0.0
2014-Jul-16 10:32N 39°26' W 000°19'0 0.0
2014-Jul-16 09:32N 39°26' W 000°19'0 0.0
2014-Jul-16 08:32N 39°26' W 000°19'0 0.0
2014-Jul-16 07:32N 39°26' W 000°19'0 0.0
2014-Jul-16 06:29N 39°26' W 000°19'0 0.0
2014-Jul-16 05:32N 39°26' W 000°19'0 0.0
2014-Jul-16 04:32N 39°26' W 000°19'0 0.0
2014-Jul-16 03:32N 39°26' W 000°19'0 0.0
2014-Jul-16 02:32N 39°26' W 000°19'0 0.0
2014-Jul-16 01:32N 39°26' W 000°19'0 0.0
2014-Jul-16 00:32N 39°26' W 000°19'0 0.0
2014-Jul-15 23:32N 39°26' W 000°19'0 0.0
2014-Jul-15 22:32N 39°26' W 000°19'0 0.0
2014-Jul-15 21:32N 39°26' W 000°19'0 0.0
2014-Jul-15 20:29N 39°26' W 000°19'0 0.0
2014-Jul-15 19:32N 39°26' W 000°19'0 0.0
2014-Jul-15 18:32N 39°26' W 000°19'0 0.0
2014-Jul-15 17:32N 39°26' W 000°19'0 0.0
2014-Jul-15 16:32N 39°26' W 000°19'0 0.0
2014-Jul-15 15:32N 39°26' W 000°19'0 0.0
2014-Jul-15 14:32N 39°26' W 000°19'0 0.0
2014-Jul-15 13:29N 39°26' W 000°19'0 0.0
2014-Jul-15 12:29N 39°26' W 000°19'0 0.0
2014-Jul-15 11:32N 39°26' W 000°19'0 0.0
2014-Jul-15 10:32N 39°26' W 000°19'0 0.0
2014-Jul-15 09:32N 39°26' W 000°19'0 0.0
2014-Jul-15 08:32N 39°26' W 000°19'0 0.0
2014-Jul-15 07:32N 39°26' W 000°19'0 0.0
2014-Jul-15 06:32N 39°26' W 000°19'0 0.0
2014-Jul-15 05:32N 39°26' W 000°19'0 0.0
2014-Jul-15 04:32N 39°26' W 000°19'0 0.0
2014-Jul-15 03:32N 39°26' W 000°19'0 0.0
2014-Jul-15 02:32N 39°26' W 000°19'0 0.0
2014-Jul-15 01:32N 39°26' W 000°19'0 0.0
2014-Jul-15 00:32N 39°26' W 000°19'  

Dump ship's entire track history